createdAt,value
2019-03-11T00:04:16.462Z,6.10
2019-03-11T00:09:23.114Z,6.10
2019-03-11T00:14:29.397Z,6.10
2019-03-11T00:19:35.313Z,6.10
2019-03-11T00:24:41.350Z,6.10
2019-03-11T00:29:49.317Z,6.00
2019-03-11T00:34:54.965Z,5.90
2019-03-11T00:40:00.965Z,5.90
2019-03-11T00:45:08.993Z,5.70
2019-03-11T00:50:15.418Z,5.70
2019-03-11T00:55:21.646Z,5.70
2019-03-11T01:00:30.477Z,5.60
2019-03-11T01:05:36.526Z,5.70
2019-03-11T01:10:42.468Z,5.70
2019-03-11T01:15:48.496Z,5.70
2019-03-11T01:20:54.749Z,5.70
2019-03-11T01:26:00.788Z,5.70
2019-03-11T01:31:06.770Z,5.80
2019-03-11T01:36:12.772Z,5.90
2019-03-11T01:41:18.745Z,5.90
2019-03-11T01:46:25.283Z,5.90
2019-03-11T01:51:32.383Z,5.80
2019-03-11T01:56:38.498Z,5.90
2019-03-11T02:01:44.621Z,5.90
2019-03-11T02:06:50.651Z,5.90
2019-03-11T02:11:56.850Z,5.90
2019-03-11T02:17:02.797Z,5.90
2019-03-11T02:22:11.120Z,5.80
2019-03-11T02:27:17.089Z,5.80
2019-03-11T02:32:23.207Z,5.80
2019-03-11T02:37:29.957Z,5.90
2019-03-11T02:42:35.919Z,5.80
2019-03-11T02:47:43.329Z,5.70
2019-03-11T02:52:49.553Z,5.70
2019-03-11T02:57:55.639Z,5.70
2019-03-11T03:03:09.551Z,5.60
2019-03-11T03:08:15.469Z,5.70
2019-03-11T03:13:21.592Z,5.70
2019-03-11T03:18:27.564Z,5.70
2019-03-11T03:23:33.601Z,5.70
2019-03-11T03:28:39.560Z,5.70
2019-03-11T03:33:45.707Z,5.60
2019-03-11T03:38:51.603Z,5.60
2019-03-11T03:43:58.682Z,5.50
2019-03-11T03:49:05.166Z,5.50
2019-03-11T03:54:11.328Z,5.30
2019-03-11T03:59:18.226Z,5.30
2019-03-11T04:04:24.307Z,5.30
2019-03-11T04:09:30.315Z,5.20
2019-03-11T04:14:36.250Z,5.30
2019-03-11T04:19:44.322Z,5.30
2019-03-11T04:24:50.808Z,5.30
2019-03-11T04:29:56.770Z,5.40
2019-03-11T04:35:05.001Z,5.40
2019-03-11T04:40:12.794Z,5.40
2019-03-11T04:45:19.297Z,5.50
2019-03-11T04:50:25.367Z,5.40
2019-03-11T04:55:31.433Z,5.40
2019-03-11T05:00:39.325Z,5.40
2019-03-11T05:05:45.397Z,5.50
2019-03-11T05:10:52.151Z,5.20
2019-03-11T05:15:58.057Z,5.20
2019-03-11T05:21:04.074Z,5.20
2019-03-11T05:26:10.091Z,5.30
2019-03-11T05:31:16.222Z,5.30
2019-03-11T05:36:22.885Z,5.40
2019-03-11T05:41:28.877Z,5.20
2019-03-11T05:46:34.817Z,5.10
2019-03-11T05:51:42.564Z,4.90
2019-03-11T05:56:48.559Z,5.00
2019-03-11T06:01:54.613Z,5.10
2019-03-11T06:07:00.607Z,5.30
2019-03-11T06:12:06.721Z,5.30
2019-03-11T06:17:12.680Z,5.30
2019-03-11T06:22:21.585Z,5.30
2019-03-11T06:27:27.553Z,5.40
2019-03-11T06:32:33.506Z,5.40
2019-03-11T06:37:40.240Z,5.40
2019-03-11T06:42:46.217Z,5.30
2019-03-11T06:47:52.153Z,5.20
2019-03-11T06:52:58.084Z,5.20
2019-03-11T06:58:04.081Z,5.20
2019-03-11T07:03:10.894Z,5.30
2019-03-11T07:08:17.109Z,5.40
2019-03-11T07:13:23.121Z,5.40
2019-03-11T07:18:29.263Z,5.40
2019-03-11T07:23:35.246Z,5.40
2019-03-11T07:28:41.205Z,5.40
2019-03-11T07:33:47.136Z,5.50
2019-03-11T07:38:53.216Z,5.50
2019-03-11T07:43:59.090Z,5.50
2019-03-11T07:49:05.104Z,5.60
2019-03-11T07:54:11.068Z,5.60
2019-03-11T07:59:17.132Z,5.70
2019-03-11T08:04:23.089Z,5.70
2019-03-11T08:09:37.663Z,5.80
2019-03-11T08:14:37.196Z,5.90
2019-03-11T08:19:44.135Z,5.90
2019-03-11T08:24:50.272Z,5.80
2019-03-11T08:29:59.492Z,5.80
2019-03-11T08:35:06.205Z,5.90
2019-03-11T08:40:12.873Z,6.00
2019-03-11T08:45:20.039Z,6.00
2019-03-11T08:50:25.936Z,6.10
2019-03-11T08:55:32.909Z,6.10
2019-03-11T09:00:38.974Z,6.20
2019-03-11T09:05:44.962Z,6.30
2019-03-11T09:10:51.947Z,6.20
2019-03-11T09:15:57.998Z,6.30
2019-03-11T09:21:05.130Z,6.40
2019-03-11T09:26:11.342Z,6.50
2019-03-11T09:31:17.376Z,6.70
2019-03-11T09:36:23.340Z,7.40
2019-03-11T09:41:29.284Z,7.30
2019-03-11T09:46:35.202Z,6.80
2019-03-11T09:51:41.336Z,7.60
2019-03-11T09:56:47.554Z,8.90
2019-03-11T10:01:53.440Z,9.60
2019-03-11T10:06:59.846Z,10.30
2019-03-11T10:12:06.335Z,8.00
2019-03-11T10:17:12.305Z,7.80
2019-03-11T10:22:18.228Z,7.70
2019-03-11T10:27:24.186Z,7.90
2019-03-11T10:32:30.128Z,7.60
2019-03-11T10:37:36.135Z,7.60
2019-03-11T10:42:42.146Z,7.30
2019-03-11T10:47:48.344Z,7.50
2019-03-11T10:52:55.467Z,7.60
2019-03-11T10:58:01.724Z,7.50
2019-03-11T11:03:08.232Z,7.30
2019-03-11T11:08:14.336Z,7.30
2019-03-11T11:13:20.329Z,7.10
2019-03-11T11:18:26.326Z,7.30
2019-03-11T11:23:32.377Z,7.50
2019-03-11T11:28:38.539Z,7.30
2019-03-11T11:33:46.384Z,7.50
2019-03-11T11:38:52.330Z,7.70
2019-03-11T11:44:00.082Z,8.00
2019-03-11T11:49:06.082Z,8.00
2019-03-11T11:54:12.460Z,8.00
2019-03-11T11:59:19.392Z,8.10
2019-03-11T12:04:25.478Z,8.20
2019-03-11T12:09:31.549Z,8.00
2019-03-11T12:14:37.486Z,8.00
2019-03-11T12:19:43.509Z,7.90
2019-03-11T12:24:49.476Z,8.00
2019-03-11T12:29:55.473Z,8.00
2019-03-11T12:35:01.603Z,8.10
2019-03-11T12:40:08.792Z,8.20
2019-03-11T12:45:14.957Z,8.20
2019-03-11T12:50:22.206Z,8.20
2019-03-11T12:55:29.277Z,8.10
2019-03-11T13:00:35.204Z,8.10
2019-03-11T13:05:41.332Z,8.00
2019-03-11T13:10:47.308Z,8.00
2019-03-11T13:15:53.311Z,8.20
2019-03-11T13:21:01.077Z,8.00
2019-03-11T13:26:07.109Z,8.00
2019-03-11T13:31:13.100Z,8.10
2019-03-11T13:36:19.096Z,8.00
2019-03-11T13:41:25.105Z,7.90
2019-03-11T13:46:32.481Z,7.90
2019-03-11T13:51:39.478Z,8.00
2019-03-11T13:56:45.772Z,8.00
2019-03-11T14:01:51.783Z,7.90
2019-03-11T14:06:57.870Z,7.80
2019-03-11T14:12:04.679Z,7.90
2019-03-11T14:17:10.640Z,7.90
2019-03-11T14:22:17.941Z,8.00
2019-03-11T14:27:23.804Z,8.10
2019-03-11T14:32:29.877Z,8.00
2019-03-11T14:37:35.864Z,8.10
2019-03-11T18:07:01.448Z,7.30
2019-03-11T18:12:07.463Z,7.40
2019-03-11T18:17:13.559Z,7.30
2019-03-11T18:22:19.439Z,7.30
2019-03-11T18:27:25.782Z,7.30
2019-03-11T18:32:31.775Z,7.30
2019-03-11T18:37:37.840Z,7.20
2019-03-11T18:42:54.208Z,7.20
2019-03-11T18:48:01.672Z,7.20
2019-03-11T18:53:07.765Z,7.10
2019-03-11T18:58:13.834Z,7.00
2019-03-11T19:03:19.876Z,7.00
2019-03-11T19:08:25.901Z,7.00
2019-03-11T19:13:31.923Z,7.00
2019-03-11T19:18:38.008Z,6.90
2019-03-11T19:23:43.982Z,6.90
2019-03-11T19:28:50.747Z,6.80
2019-03-11T19:33:56.739Z,6.80
2019-03-11T19:39:06.971Z,6.80
2019-03-11T19:44:13.439Z,6.80
2019-03-11T19:49:19.862Z,6.70
2019-03-11T19:54:26.976Z,6.70
2019-03-11T19:59:34.801Z,6.70
2019-03-11T20:04:41.243Z,6.70
2019-03-11T20:09:47.420Z,6.70
2019-03-11T20:14:53.553Z,6.70
2019-03-11T20:19:59.561Z,6.60
2019-03-11T20:25:07.209Z,6.70
2019-03-11T20:30:17.489Z,6.60
2019-03-11T20:35:24.488Z,6.70
2019-03-11T20:40:30.665Z,6.70
2019-03-11T20:45:36.578Z,6.80
2019-03-11T20:50:43.064Z,6.70
2019-03-11T20:55:49.125Z,6.70
2019-03-11T21:00:55.307Z,6.70
2019-03-11T21:06:01.540Z,6.70
2019-03-11T21:11:07.540Z,6.70
2019-03-11T21:16:13.683Z,6.60
2019-03-11T21:21:19.822Z,6.70
2019-03-11T21:26:25.767Z,6.70
2019-03-11T21:31:31.736Z,6.70
2019-03-11T21:36:38.775Z,6.70
2019-03-11T21:41:45.045Z,6.80
2019-03-11T21:46:51.144Z,6.80
2019-03-11T21:51:57.642Z,6.80
2019-03-11T21:57:03.503Z,6.80
2019-03-11T22:02:09.555Z,6.90
2019-03-11T22:07:16.104Z,6.80
2019-03-11T22:12:22.177Z,6.90
2019-03-11T22:17:28.171Z,6.90
2019-03-11T22:22:34.120Z,6.90
2019-03-11T22:27:40.307Z,6.90
2019-03-11T22:32:46.464Z,6.80
2019-03-11T22:37:52.465Z,6.70
2019-03-11T22:42:58.405Z,6.70
2019-03-11T22:48:04.402Z,6.60
2019-03-11T22:53:11.131Z,6.60
2019-03-11T22:58:17.184Z,6.50
2019-03-11T23:03:24.116Z,6.50
2019-03-11T23:21:18.413Z,6.40
2019-03-11T23:26:24.559Z,6.50
2019-03-11T23:31:31.490Z,6.50
2019-03-11T23:36:37.615Z,6.40
2019-03-11T23:41:44.678Z,6.30
2019-03-11T23:46:50.725Z,6.40
2019-03-11T23:51:56.825Z,6.30
2019-03-11T23:57:02.864Z,6.30
